Rasht, Iran

1:42 PM IRST on October 22, 2014 (GMT +0330)
Rasht | Change Station
CLOSE
Current Station
Airport
Location: Rasht,
Elevation: -30 ft
Nearby Weather Stations

Elev -30 ft 37.33 °N, 49.61 °E | Updated 12 minutes ago

Clear
Clear
70 °F
Feels Like 70 °F
N
0
Wind Variable Wind from North

Today
High -- | Low -- °F
--% Chance of Precip.
Yesterday
High -- | Low -- °F
Precip. -- in
6:25 AM 5:25 PM
Waning Crescent, 2% visible
Pressure 29.92 in
Visibility -9999.0 miles
Clouds
Dew Point 59 °F
Humidity 68%
Rainfall 0.00 in
Snow Depth Not available.
UV Not available.
Pollen Not available.
Air Quality Not available.
Flu Activity Not available.
METAR OIGG 221000Z 00000KT CAVOK 21/15 Q1013

More Conditions Fewer Conditions

Pressure 29.92 in
Visibility -9999.0 miles
Clouds
Dew Point 59 °F
Humidity 68%
Rainfall 0.00 in
Snow Depth Not available.
UV Not available.
Pollen Not available.
Air Quality Not available.
Flu Activity Not available.
METAR OIGG 221000Z 00000KT CAVOK 21/15 Q1013

More Conditions Fewer Conditions

10-Day Weather Forecast

Almanac

Astronomy

Oct. 22, 2014 Rise Set
Actual Time 6:25 AM IRST 5:25 PM IRST
Civil Twilight 5:59 AM IRST 5:52 PM IRST
Nautical Twilight 5:28 AM IRST 6:22 PM IRST
Astronomical Twilight 4:58 AM IRST 6:52 PM IRST
Moon 4:46 AM IRST 4:38 PM IRST
Length of Visible Light 11h 52m
Length of Day
10h 59m
Tomorrow will be 2m 15s shorter.
Waning Crescent, 2% of the Moon is Illuminated
Today
Waning Crescent
Oct 23
New
Oct 30
First Quarter
Nov 6
Full
Nov 14
Last Quarter

Yesterday's Extremes

Country Highs Country Lows

Community

WunderPhotos

Upload Photos

1,763,901 photos uploaded!

Nearby

Snow Depth

Not available.

Earthquake Activity

City Distance Mag. Time & Date
No recent earthquake activity has been reported nearby.
Minimum magnitude displayed is 2.5.

Coastal Water Temperatures

Place Temperature
No Stations Reporting

Nearby Weather Stations